createdAt,value
2023-07-16T00:00:54.224Z,17.50
2023-07-16T00:03:21.157Z,17.50
2023-07-16T00:05:52.162Z,17.50
2023-07-16T00:08:19.480Z,17.40
2023-07-16T00:10:46.672Z,17.50
2023-07-16T00:13:13.712Z,17.50
2023-07-16T00:15:40.741Z,17.50
2023-07-16T00:18:10.737Z,17.40
2023-07-16T00:20:37.840Z,17.40
2023-07-16T00:23:04.893Z,17.40
2023-07-16T00:25:32.065Z,17.40
2023-07-16T00:27:59.464Z,17.40
2023-07-16T00:30:26.437Z,17.40
2023-07-16T00:32:53.646Z,17.40
2023-07-16T00:35:20.573Z,17.40
2023-07-16T00:37:47.575Z,17.40
2023-07-16T00:40:14.837Z,17.40
2023-07-16T00:42:42.009Z,17.40
2023-07-16T00:45:14.528Z,17.40
2023-07-16T00:47:44.805Z,17.40
2023-07-16T00:50:13.304Z,17.40
2023-07-16T00:52:43.164Z,17.40
2023-07-16T00:55:10.725Z,17.30
2023-07-16T00:57:38.323Z,17.30
2023-07-16T01:00:06.264Z,17.30
2023-07-16T01:02:34.057Z,17.30
2023-07-16T01:05:01.495Z,17.30
2023-07-16T01:07:29.761Z,17.30
2023-07-16T01:09:57.376Z,17.30
2023-07-16T01:12:25.612Z,17.30
2023-07-16T01:14:53.824Z,17.30
2023-07-16T01:17:22.086Z,17.30
2023-07-16T01:19:49.059Z,17.20
2023-07-16T01:22:48.982Z,17.20
2023-07-16T01:25:51.230Z,17.20
2023-07-16T01:28:52.340Z,17.20
2023-07-16T01:31:19.960Z,17.20
2023-07-16T01:33:47.580Z,17.20
2023-07-16T01:36:15.536Z,17.20
2023-07-16T01:38:43.133Z,17.10
2023-07-16T01:41:10.211Z,17.10
2023-07-16T01:43:37.238Z,17.10
2023-07-16T01:46:04.646Z,17.20
2023-07-16T01:48:34.598Z,17.10
2023-07-16T01:51:01.883Z,17.10
2023-07-16T01:53:29.072Z,17.10
2023-07-16T01:55:56.159Z,17.10
2023-07-16T01:58:25.488Z,17.10
2023-07-16T02:00:52.647Z,17.10
2023-07-16T02:03:19.743Z,17.10
2023-07-16T02:05:46.975Z,17.10
2023-07-16T02:08:13.930Z,17.10
2023-07-16T02:10:41.075Z,17.00
2023-07-16T02:13:07.988Z,17.00
2023-07-16T02:15:35.084Z,17.10
2023-07-16T02:18:02.239Z,17.10
2023-07-16T02:20:29.231Z,17.10
2023-07-16T02:22:56.225Z,17.10
2023-07-16T02:25:24.764Z,17.10
2023-07-16T02:27:51.891Z,17.00
2023-07-16T02:30:19.272Z,17.00
2023-07-16T02:32:46.277Z,17.00
2023-07-16T02:35:13.480Z,17.00
2023-07-16T02:37:41.822Z,17.00
2023-07-16T02:40:09.733Z,17.00
2023-07-16T02:42:36.636Z,17.00
2023-07-16T02:45:03.993Z,17.10
2023-07-16T02:47:30.971Z,17.10
2023-07-16T02:49:57.931Z,17.20
2023-07-16T02:52:25.066Z,17.10
2023-07-16T02:54:52.083Z,17.10
2023-07-16T02:57:19.143Z,17.10
2023-07-16T02:59:46.152Z,17.10
2023-07-16T03:02:13.191Z,17.00
2023-07-16T03:04:40.241Z,17.00
2023-07-16T03:07:07.606Z,17.00
2023-07-16T03:09:34.664Z,17.00
2023-07-16T03:12:01.589Z,17.00
2023-07-16T03:14:29.071Z,16.90
2023-07-16T03:16:57.344Z,16.90
2023-07-16T03:19:24.440Z,16.90
2023-07-16T03:21:52.175Z,16.90
2023-07-16T03:24:19.121Z,16.90
2023-07-16T03:26:46.110Z,16.90
2023-07-16T03:29:13.073Z,16.80
2023-07-16T03:31:40.470Z,16.80
2023-07-16T03:34:07.567Z,16.80
2023-07-16T03:36:34.510Z,16.70
2023-07-16T03:39:02.812Z,16.70
2023-07-16T03:41:30.001Z,16.70
2023-07-16T03:43:57.302Z,16.70
2023-07-16T03:46:24.159Z,16.70
2023-07-16T03:48:57.440Z,16.70
2023-07-16T03:51:25.459Z,16.70
2023-07-16T03:53:52.328Z,16.70
2023-07-16T03:56:19.705Z,16.70
2023-07-16T03:58:46.697Z,16.70
2023-07-16T04:01:13.954Z,16.70
2023-07-16T04:03:40.921Z,16.70
2023-07-16T04:06:10.996Z,16.70
2023-07-16T04:08:39.811Z,16.70
2023-07-16T04:11:08.168Z,16.70
2023-07-16T04:13:38.209Z,16.70
2023-07-16T04:16:05.394Z,16.70
2023-07-16T04:18:32.717Z,16.80
2023-07-16T04:20:59.786Z,16.80
2023-07-16T04:23:26.760Z,16.80
2023-07-16T04:25:57.017Z,16.80
2023-07-16T04:28:24.230Z,16.90
2023-07-16T04:30:51.394Z,16.90
2023-07-16T04:33:20.315Z,16.90
2023-07-16T04:35:47.605Z,16.90
2023-07-16T04:38:15.616Z,17.00
2023-07-16T04:40:45.038Z,17.00
2023-07-16T04:43:12.120Z,17.00
2023-07-16T04:45:41.073Z,17.00
2023-07-16T04:48:11.119Z,17.10
2023-07-16T04:50:38.597Z,17.10
2023-07-16T04:53:05.809Z,17.10
2023-07-16T04:55:41.691Z,17.20
2023-07-16T04:58:08.639Z,17.20
2023-07-16T05:00:35.928Z,17.20
2023-07-16T05:03:03.576Z,17.30
2023-07-16T05:05:32.132Z,17.30
2023-07-16T05:07:59.272Z,17.30
2023-07-16T05:10:26.170Z,17.40
2023-07-16T05:12:52.998Z,17.40
2023-07-16T05:15:20.118Z,17.40
2023-07-16T05:17:48.133Z,17.50
2023-07-16T05:20:15.160Z,17.50
2023-07-16T05:22:42.115Z,17.50
2023-07-16T05:25:10.065Z,17.60
2023-07-16T05:27:37.005Z,17.60
2023-07-16T05:30:04.816Z,17.70
2023-07-16T05:32:31.881Z,17.70
2023-07-16T05:35:00.151Z,17.80
2023-07-16T05:37:28.831Z,17.90
2023-07-16T05:39:55.816Z,18.00
2023-07-16T05:42:22.853Z,18.10
2023-07-16T05:44:49.982Z,18.20
2023-07-16T05:47:17.011Z,18.40
2023-07-16T05:49:44.069Z,18.60
2023-07-16T05:52:11.095Z,18.80
2023-07-16T05:54:39.202Z,19.00
2023-07-16T05:57:06.810Z,19.20
2023-07-16T05:59:37.579Z,19.40
2023-07-16T06:02:05.752Z,19.60
2023-07-16T06:04:32.781Z,19.90
2023-07-16T06:06:59.819Z,20.20
2023-07-16T06:09:26.792Z,20.40
2023-07-16T06:11:53.959Z,20.60
2023-07-16T06:14:22.397Z,20.80
2023-07-16T06:16:49.637Z,21.00
2023-07-16T06:19:16.873Z,21.30
2023-07-16T06:21:44.090Z,21.50
2023-07-16T06:24:12.051Z,21.70
2023-07-16T06:26:39.995Z,22.00
2023-07-16T06:29:08.373Z,22.20
2023-07-16T06:31:35.715Z,22.40
2023-07-16T06:34:02.794Z,22.60
2023-07-16T06:36:29.928Z,22.80
2023-07-16T06:38:57.518Z,23.10
2023-07-16T06:41:24.522Z,23.30
2023-07-16T06:43:51.791Z,23.50
2023-07-16T06:46:19.123Z,23.70
2023-07-16T06:48:46.424Z,23.80
2023-07-16T06:51:13.380Z,24.20
2023-07-16T06:53:41.723Z,24.50
2023-07-16T06:56:08.592Z,24.70
2023-07-16T06:58:41.393Z,24.70
2023-07-16T07:01:08.530Z,24.80
2023-07-16T07:03:35.808Z,25.00
2023-07-16T07:06:06.150Z,25.20
2023-07-16T07:08:33.408Z,25.60
2023-07-16T07:11:00.387Z,25.60
2023-07-16T07:13:27.376Z,25.30
2023-07-16T07:15:55.949Z,24.70
2023-07-16T07:18:22.913Z,24.40
2023-07-16T07:20:50.513Z,23.90
2023-07-16T07:23:26.050Z,24.20
2023-07-16T07:25:53.717Z,24.60
2023-07-16T07:28:21.726Z,25.40
2023-07-16T07:30:49.050Z,26.10
2023-07-16T07:33:16.113Z,26.60
2023-07-16T07:35:43.388Z,26.10
2023-07-16T07:38:10.499Z,26.20
2023-07-16T07:40:37.491Z,26.10
2023-07-16T07:43:04.726Z,26.00
2023-07-16T07:45:31.880Z,25.90
2023-07-16T07:47:58.910Z,25.30
2023-07-16T07:50:27.054Z,24.70
2023-07-16T07:52:54.163Z,24.10
2023-07-16T07:55:21.274Z,23.60
2023-07-16T07:57:48.305Z,23.50
2023-07-16T08:00:15.728Z,23.50
2023-07-16T08:02:42.852Z,24.20
2023-07-16T08:05:10.313Z,25.60
2023-07-16T08:07:37.425Z,26.50
2023-07-16T08:10:04.901Z,27.00
2023-07-16T08:12:32.254Z,26.60
2023-07-16T08:15:00.152Z,26.80
2023-07-16T08:17:30.494Z,27.10
2023-07-16T08:19:57.602Z,26.80
2023-07-16T08:22:25.841Z,26.10
2023-07-16T08:24:53.394Z,26.00
2023-07-16T08:27:21.371Z,26.50
2023-07-16T08:29:48.684Z,27.50
2023-07-16T08:32:16.074Z,28.40
2023-07-16T08:34:43.443Z,29.10
2023-07-16T08:37:10.411Z,28.80
2023-07-16T08:39:37.540Z,28.50
2023-07-16T08:42:05.563Z,27.90
2023-07-16T08:44:32.599Z,27.00
2023-07-16T08:47:04.207Z,26.00
2023-07-16T08:49:31.747Z,25.10
2023-07-16T08:51:58.912Z,24.80
2023-07-16T08:54:27.168Z,24.90
2023-07-16T08:56:55.001Z,25.30
2023-07-16T08:59:24.982Z,25.70
2023-07-16T09:01:53.834Z,26.40
2023-07-16T09:04:20.984Z,27.00
2023-07-16T09:06:47.872Z,27.10
2023-07-16T09:09:23.825Z,26.50
2023-07-16T09:11:50.816Z,26.10
2023-07-16T09:14:23.289Z,26.70
2023-07-16T09:16:54.871Z,26.70
2023-07-16T09:19:23.217Z,26.50
2023-07-16T09:21:52.012Z,26.20
2023-07-16T09:24:21.822Z,25.80
2023-07-16T09:26:53.864Z,25.70
2023-07-16T09:29:21.489Z,25.40
2023-07-16T09:32:03.960Z,25.10
2023-07-16T09:34:31.305Z,25.10
2023-07-16T09:36:59.370Z,25.80
2023-07-16T09:39:27.565Z,26.20
2023-07-16T09:41:55.117Z,27.40
2023-07-16T09:44:22.096Z,27.60
2023-07-16T09:46:49.353Z,26.90
2023-07-16T09:49:17.641Z,26.20
2023-07-16T09:51:46.200Z,25.70
2023-07-16T09:54:17.219Z,25.30
2023-07-16T09:56:49.671Z,25.20
2023-07-16T09:59:19.226Z,25.20
2023-07-16T10:01:46.587Z,25.00
2023-07-16T10:04:22.239Z,24.70
2023-07-16T10:06:57.365Z,24.40
2023-07-16T10:09:51.992Z,25.80
2023-07-16T10:12:21.335Z,27.40
2023-07-16T10:14:51.204Z,29.20
2023-07-16T10:17:20.832Z,30.70
2023-07-16T10:20:16.996Z,30.80
2023-07-16T10:22:51.023Z,29.40
2023-07-16T10:25:22.000Z,28.00
2023-07-16T10:27:49.542Z,27.10
2023-07-16T10:30:17.740Z,26.40
2023-07-16T10:32:45.453Z,26.00
2023-07-16T10:35:13.587Z,25.80
2023-07-16T10:37:41.239Z,25.60
2023-07-16T10:40:12.949Z,25.50
2023-07-16T10:42:43.491Z,25.50
2023-07-16T10:45:11.194Z,26.10
2023-07-16T10:47:39.372Z,27.00
2023-07-16T10:50:09.128Z,27.00
2023-07-16T10:52:42.186Z,27.60
2023-07-16T10:55:09.279Z,27.50
2023-07-16T10:57:36.685Z,27.50
2023-07-16T11:00:05.058Z,27.50
2023-07-16T11:02:32.739Z,28.00
2023-07-16T11:05:02.110Z,29.30
2023-07-16T11:07:29.445Z,30.60
2023-07-16T11:09:56.609Z,31.70
2023-07-16T11:12:25.210Z,32.60
2023-07-16T11:14:56.764Z,33.00
2023-07-16T11:17:28.586Z,31.90
2023-07-16T11:19:56.557Z,31.60
2023-07-16T11:22:33.212Z,30.40
2023-07-16T11:25:01.166Z,29.30
2023-07-16T11:27:33.802Z,29.40
2023-07-16T11:30:01.737Z,29.60
2023-07-16T11:32:38.392Z,29.10
2023-07-16T11:35:12.210Z,28.80
2023-07-16T11:37:39.434Z,28.60
2023-07-16T11:40:09.182Z,28.30
2023-07-16T11:42:38.839Z,28.30
2023-07-16T11:45:15.679Z,28.00
2023-07-16T11:47:44.914Z,28.40
2023-07-16T11:50:12.738Z,28.90
2023-07-16T11:52:40.485Z,29.60
2023-07-16T11:55:07.931Z,29.60
2023-07-16T11:57:35.431Z,30.00
2023-07-16T12:00:04.620Z,31.20
2023-07-16T12:02:31.914Z,32.10
2023-07-16T12:04:59.251Z,32.70
2023-07-16T12:07:37.992Z,33.20
2023-07-16T12:10:06.773Z,33.70
2023-07-16T12:12:34.630Z,34.20
2023-07-16T12:15:01.865Z,34.60
2023-07-16T12:17:28.998Z,34.70
2023-07-16T12:19:56.562Z,34.90
2023-07-16T12:22:24.587Z,35.20
2023-07-16T12:24:51.593Z,35.30
2023-07-16T12:27:20.071Z,35.50
2023-07-16T12:29:47.173Z,35.70
2023-07-16T12:32:15.557Z,35.60
2023-07-16T12:34:42.551Z,35.50
2023-07-16T12:37:09.602Z,35.80
2023-07-16T12:39:36.701Z,36.00
2023-07-16T12:42:03.654Z,35.30
2023-07-16T12:44:31.086Z,34.40
2023-07-16T12:46:58.082Z,33.40
2023-07-16T12:49:25.025Z,32.60
2023-07-16T12:51:52.054Z,31.90
2023-07-16T12:54:19.236Z,31.50
2023-07-16T12:56:46.230Z,30.80
2023-07-16T12:59:13.470Z,30.20
2023-07-16T13:01:40.423Z,30.10
2023-07-16T13:04:08.111Z,30.60
2023-07-16T13:06:35.426Z,30.60
2023-07-16T13:09:05.300Z,30.50
2023-07-16T13:11:32.340Z,30.40
2023-07-16T13:13:59.418Z,30.00
2023-07-16T13:16:27.440Z,29.30
2023-07-16T13:18:54.698Z,28.80
2023-07-16T13:21:21.938Z,28.70
2023-07-16T13:23:48.961Z,29.10
2023-07-16T13:26:16.256Z,28.90
2023-07-16T13:28:43.963Z,28.60
2023-07-16T13:31:10.942Z,28.30
2023-07-16T13:33:38.030Z,27.90
2023-07-16T13:36:06.274Z,28.20
2023-07-16T13:38:33.518Z,28.30
2023-07-16T13:41:00.505Z,28.00
2023-07-16T13:43:27.531Z,27.80
2023-07-16T13:45:54.560Z,28.00
2023-07-16T13:48:21.711Z,28.00
2023-07-16T13:50:48.687Z,27.80
2023-07-16T13:53:16.765Z,27.50
2023-07-16T13:55:45.518Z,27.30
2023-07-16T13:58:12.839Z,27.30
2023-07-16T14:00:39.871Z,27.30
2023-07-16T14:03:07.720Z,27.20
2023-07-16T14:05:40.169Z,27.30
2023-07-16T14:08:09.719Z,27.40
2023-07-16T14:10:37.090Z,27.40
2023-07-16T14:13:04.190Z,27.40
2023-07-16T14:15:31.278Z,27.30
2023-07-16T14:17:58.266Z,27.10
2023-07-16T14:20:25.333Z,27.00
2023-07-16T14:22:52.586Z,26.90
2023-07-16T14:25:19.710Z,27.00
2023-07-16T14:27:46.670Z,27.20
2023-07-16T14:30:13.815Z,27.00
2023-07-16T14:32:41.106Z,26.70
2023-07-16T14:35:15.453Z,26.50
2023-07-16T14:37:54.564Z,26.40
2023-07-16T14:40:21.690Z,26.20
2023-07-16T14:42:48.695Z,26.10
2023-07-16T14:45:16.135Z,26.00
2023-07-16T14:47:43.177Z,26.10
2023-07-16T14:50:11.195Z,26.00
2023-07-16T14:52:38.467Z,25.90
2023-07-16T14:55:05.939Z,25.90
2023-07-16T14:57:32.974Z,25.90
2023-07-16T15:00:00.242Z,25.90
2023-07-16T15:02:27.283Z,25.90
2023-07-16T15:04:54.308Z,25.80
2023-07-16T15:07:21.871Z,25.70
2023-07-16T15:09:49.094Z,25.60
2023-07-16T15:12:16.121Z,25.70
2023-07-16T15:14:43.031Z,25.70
2023-07-16T15:17:10.003Z,25.70
2023-07-16T15:19:37.089Z,25.70
2023-07-16T15:22:06.796Z,25.80
2023-07-16T15:24:37.715Z,25.90
2023-07-16T15:27:05.235Z,26.10
2023-07-16T15:29:32.347Z,26.20
2023-07-16T15:32:02.412Z,26.20
2023-07-16T15:34:30.318Z,26.30
2023-07-16T15:36:57.287Z,26.50
2023-07-16T15:39:24.312Z,26.60
2023-07-16T15:41:51.422Z,26.70
2023-07-16T15:44:18.849Z,26.80
2023-07-16T15:46:45.944Z,26.70
2023-07-16T15:49:18.980Z,26.70
2023-07-16T15:51:46.958Z,26.60
2023-07-16T15:54:13.999Z,26.40
2023-07-16T15:56:42.553Z,26.20
2023-07-16T15:59:09.670Z,26.10
2023-07-16T16:01:36.866Z,26.10
2023-07-16T16:04:04.146Z,26.10
2023-07-16T16:06:32.142Z,26.00
2023-07-16T16:08:59.473Z,25.90
2023-07-16T16:11:26.727Z,25.90
2023-07-16T16:13:54.351Z,25.80
2023-07-16T16:16:21.848Z,25.70
2023-07-16T16:18:49.570Z,25.60
2023-07-16T16:21:16.825Z,25.40
2023-07-16T16:23:43.904Z,25.10
2023-07-16T16:26:12.214Z,24.90
2023-07-16T16:28:40.893Z,24.80
2023-07-16T16:31:08.321Z,24.70
2023-07-16T16:33:35.591Z,24.70
2023-07-16T16:36:02.678Z,24.70
2023-07-16T16:38:29.660Z,24.70
2023-07-16T16:41:08.908Z,24.70
2023-07-16T16:43:37.359Z,24.70
2023-07-16T16:46:04.639Z,24.70
2023-07-16T16:48:37.252Z,24.80
2023-07-16T16:51:04.652Z,24.90
2023-07-16T16:53:31.803Z,24.90
2023-07-16T16:56:04.868Z,25.00
2023-07-16T16:58:32.068Z,25.00
2023-07-16T17:00:59.133Z,25.00
2023-07-16T17:03:27.915Z,24.90
2023-07-16T17:05:57.119Z,24.80
2023-07-16T17:08:24.666Z,24.80
2023-07-16T17:10:51.705Z,24.80
2023-07-16T17:13:29.981Z,24.90
2023-07-16T17:16:10.258Z,24.90
2023-07-16T17:18:37.349Z,24.90
2023-07-16T17:21:04.946Z,24.90
2023-07-16T17:23:31.806Z,24.80
2023-07-16T17:25:58.855Z,24.80
2023-07-16T17:28:25.948Z,24.70
2023-07-16T17:30:54.297Z,24.70
2023-07-16T17:33:21.243Z,24.70
2023-07-16T17:35:48.338Z,24.60
2023-07-16T17:38:15.453Z,24.60
2023-07-16T17:40:42.476Z,24.60
2023-07-16T17:43:11.073Z,24.50
2023-07-16T17:45:38.130Z,24.50
2023-07-16T17:48:09.518Z,24.40
2023-07-16T17:50:40.611Z,24.30
2023-07-16T17:53:07.419Z,24.20
2023-07-16T17:55:36.623Z,24.10
2023-07-16T17:58:06.852Z,24.00
2023-07-16T18:00:36.496Z,23.90
2023-07-16T18:03:03.680Z,23.80
2023-07-16T18:05:31.530Z,23.70
2023-07-16T18:07:58.773Z,23.70
2023-07-16T18:10:26.915Z,23.60
2023-07-16T18:12:54.046Z,23.50
2023-07-16T18:15:24.186Z,23.50
2023-07-16T18:18:17.527Z,23.50
2023-07-16T18:20:47.276Z,23.40
2023-07-16T18:23:15.493Z,23.40
2023-07-16T18:25:45.414Z,23.30
2023-07-16T18:28:13.778Z,23.20
2023-07-16T18:30:42.869Z,23.20
2023-07-16T18:33:10.378Z,23.20
2023-07-16T18:35:40.137Z,23.10
2023-07-16T18:38:07.329Z,23.10
2023-07-16T18:40:35.808Z,23.00
2023-07-16T18:43:07.161Z,23.00
2023-07-16T18:45:37.033Z,22.90
2023-07-16T18:48:04.128Z,22.90
2023-07-16T18:50:32.606Z,22.90
2023-07-16T18:53:01.109Z,22.80
2023-07-16T18:55:28.499Z,22.70
2023-07-16T18:57:57.242Z,22.70
2023-07-16T19:00:27.053Z,22.60
2023-07-16T19:02:55.677Z,22.60
2023-07-16T19:05:25.684Z,22.50
2023-07-16T19:07:53.147Z,22.40
2023-07-16T19:10:20.218Z,22.40
2023-07-16T19:12:47.647Z,22.30
2023-07-16T19:15:14.901Z,22.30
2023-07-16T19:17:45.160Z,22.30
2023-07-16T19:20:22.938Z,22.30
2023-07-16T19:22:51.813Z,22.30
2023-07-16T19:25:21.021Z,22.20
2023-07-16T19:27:48.547Z,22.20
2023-07-16T19:30:20.956Z,22.10
2023-07-16T19:32:49.764Z,22.10
2023-07-16T19:35:19.043Z,22.10
2023-07-16T19:37:46.371Z,22.00
2023-07-16T19:40:13.452Z,22.00
2023-07-16T19:42:42.528Z,21.90
2023-07-16T19:45:15.718Z,21.80
2023-07-16T19:47:42.815Z,21.80
2023-07-16T19:50:17.157Z,21.80
2023-07-16T19:52:44.350Z,21.80
2023-07-16T19:55:11.488Z,21.70
2023-07-16T19:57:40.114Z,21.70
2023-07-16T20:00:13.274Z,21.70
2023-07-16T20:02:42.750Z,21.70
2023-07-16T20:05:16.014Z,21.60
2023-07-16T20:07:44.107Z,21.60
2023-07-16T20:10:11.240Z,21.60
2023-07-16T20:12:38.688Z,21.50
2023-07-16T20:15:07.652Z,21.50
2023-07-16T20:17:35.822Z,21.40
2023-07-16T20:20:11.496Z,21.30
2023-07-16T20:22:42.115Z,21.30
2023-07-16T20:25:09.952Z,21.20
2023-07-16T20:27:37.000Z,21.20
2023-07-16T20:30:05.319Z,21.10
2023-07-16T20:32:33.917Z,21.00
2023-07-16T20:35:01.460Z,21.00
2023-07-16T20:37:28.507Z,21.00
2023-07-16T20:39:55.508Z,20.90
2023-07-16T20:42:22.646Z,20.90
2023-07-16T20:45:30.094Z,20.90
2023-07-16T20:47:59.342Z,20.80
2023-07-16T20:50:28.550Z,20.80
2023-07-16T20:52:58.769Z,20.70
2023-07-16T20:55:26.684Z,20.70
2023-07-16T20:57:55.323Z,20.60
2023-07-16T21:00:25.956Z,20.60
2023-07-16T21:02:56.974Z,20.50
2023-07-16T21:05:25.899Z,20.40
2023-07-16T21:07:53.955Z,20.30
2023-07-16T21:10:24.900Z,20.30
2023-07-16T21:12:57.381Z,20.20
2023-07-16T21:15:25.377Z,20.20
2023-07-16T21:17:52.677Z,20.10
2023-07-16T21:20:20.177Z,20.00
2023-07-16T21:22:47.519Z,20.00
2023-07-16T21:25:15.086Z,20.10
2023-07-16T21:27:47.663Z,20.10
2023-07-16T21:30:15.055Z,20.10
2023-07-16T21:32:42.246Z,20.00
2023-07-16T21:35:09.854Z,20.00
2023-07-16T21:37:36.931Z,20.00
2023-07-16T21:40:07.238Z,20.00
2023-07-16T21:42:34.226Z,20.00
2023-07-16T21:45:01.706Z,20.00
2023-07-16T21:47:29.082Z,20.00
2023-07-16T21:49:56.222Z,20.00
2023-07-16T21:52:23.181Z,20.00
2023-07-16T21:54:50.283Z,20.00
2023-07-16T21:57:18.264Z,19.90
2023-07-16T21:59:45.298Z,19.90
2023-07-16T22:02:12.288Z,19.90
2023-07-16T22:04:39.432Z,19.80
2023-07-16T22:07:10.117Z,19.80
2023-07-16T22:09:37.328Z,19.80
2023-07-16T22:12:04.651Z,19.80
2023-07-16T22:14:31.811Z,19.80
2023-07-16T22:16:58.677Z,19.70
2023-07-16T22:19:32.544Z,19.70
2023-07-16T22:22:01.616Z,19.70
2023-07-16T22:24:28.771Z,19.60
2023-07-16T22:26:55.839Z,19.60
2023-07-16T22:29:23.038Z,19.60
2023-07-16T22:31:50.911Z,19.60
2023-07-16T22:34:18.053Z,19.60
2023-07-16T22:36:45.677Z,19.60
2023-07-16T22:39:13.323Z,19.60
2023-07-16T22:41:40.849Z,19.60
2023-07-16T22:44:08.147Z,19.60
2023-07-16T22:46:35.612Z,19.60
2023-07-16T22:49:02.781Z,19.60
2023-07-16T22:51:29.995Z,19.60
2023-07-16T22:53:57.521Z,19.60
2023-07-16T22:56:24.662Z,19.60
2023-07-16T22:58:51.888Z,19.60
2023-07-16T23:01:19.596Z,19.60
2023-07-16T23:03:47.003Z,19.60
2023-07-16T23:06:14.084Z,19.60
2023-07-16T23:08:41.092Z,19.60
2023-07-16T23:11:08.370Z,19.60
2023-07-16T23:13:38.417Z,19.50
2023-07-16T23:16:06.322Z,19.50
2023-07-16T23:18:33.518Z,19.40
2023-07-16T23:21:01.389Z,19.40
2023-07-16T23:23:28.426Z,19.40
2023-07-16T23:25:55.474Z,19.40
2023-07-16T23:28:22.858Z,19.30
2023-07-16T23:30:50.768Z,19.30
2023-07-16T23:33:19.089Z,19.20
2023-07-16T23:35:46.151Z,19.20
2023-07-16T23:38:13.324Z,19.10
2023-07-16T23:40:40.232Z,19.10
2023-07-16T23:43:07.458Z,19.00
2023-07-16T23:45:35.074Z,19.00
2023-07-16T23:48:02.201Z,19.00
2023-07-16T23:50:29.143Z,18.90
2023-07-16T23:52:56.115Z,18.90
2023-07-16T23:55:23.090Z,18.90
2023-07-16T23:57:50.312Z,18.80
